createdAt,value
2023-07-03T00:00:32.814Z,1.05
2023-07-03T00:01:32.913Z,1.06
2023-07-03T00:02:33.005Z,1.04
2023-07-03T00:03:33.022Z,1.02
2023-07-03T00:04:33.103Z,1.06
2023-07-03T00:05:33.267Z,1.05
2023-07-03T00:06:33.227Z,1.05
2023-07-03T00:07:33.286Z,1.03
2023-07-03T00:08:33.338Z,1.04
2023-07-03T00:09:33.386Z,1.06
2023-07-03T00:10:33.460Z,1.08
2023-07-03T00:11:33.508Z,1.05
2023-07-03T00:12:33.535Z,1.05
2023-07-03T00:13:33.678Z,1.04
2023-07-03T00:14:33.685Z,1.04
2023-07-03T00:15:33.884Z,1.04
2023-07-03T00:16:33.819Z,1.02
2023-07-03T00:17:33.909Z,1.03
2023-07-03T00:18:33.922Z,1.03
2023-07-03T00:19:33.977Z,1.05
2023-07-03T00:20:34.031Z,1.07
2023-07-03T00:21:34.080Z,1.05
2023-07-03T00:22:34.161Z,1.05
2023-07-03T00:23:34.253Z,1.04
2023-07-03T00:24:34.270Z,1.07
2023-07-03T00:25:34.330Z,1.04
2023-07-03T00:26:34.376Z,1.05
2023-07-03T00:27:34.383Z,1.07
2023-07-03T00:28:34.466Z,1.07
2023-07-03T00:29:34.500Z,1.06
2023-07-03T00:30:34.567Z,1.09
2023-07-03T00:31:34.597Z,1.06
2023-07-03T00:32:34.643Z,1.05
2023-07-03T00:33:34.638Z,1.07
2023-07-03T00:34:34.690Z,1.07
2023-07-03T00:35:34.726Z,1.08
2023-07-03T00:36:34.771Z,1.07
2023-07-03T00:37:34.800Z,1.08
2023-07-03T00:38:34.830Z,1.07
2023-07-03T00:39:34.878Z,1.05
2023-07-03T00:40:34.879Z,1.06
2023-07-03T00:41:34.935Z,1.07
2023-07-03T00:42:34.931Z,1.05
2023-07-03T00:43:35.006Z,1.06
2023-07-03T00:44:35.006Z,1.06
2023-07-03T00:45:35.075Z,1.06
2023-07-03T00:46:35.161Z,1.07
2023-07-03T00:47:35.181Z,1.05
2023-07-03T00:48:35.197Z,1.07
2023-07-03T00:49:35.188Z,1.07
2023-07-03T00:50:35.258Z,1.05
2023-07-03T00:51:35.320Z,1.09
2023-07-03T00:52:35.322Z,1.06
2023-07-03T00:53:35.382Z,1.09
2023-07-03T00:54:35.433Z,1.07
2023-07-03T00:55:35.451Z,1.08
2023-07-03T00:56:35.568Z,1.07
2023-07-03T00:57:35.617Z,1.08
2023-07-03T00:58:35.618Z,1.06
2023-07-03T00:59:35.670Z,1.09
2023-07-03T01:00:35.734Z,1.08
2023-07-03T01:01:35.811Z,1.07
2023-07-03T01:02:35.789Z,1.08
2023-07-03T01:03:35.781Z,1.07
2023-07-03T01:04:36.012Z,1.08
2023-07-03T01:05:36.039Z,1.09
2023-07-03T01:06:35.930Z,1.09
2023-07-03T01:07:35.996Z,1.08
2023-07-03T01:08:35.996Z,1.07
2023-07-03T01:09:36.024Z,1.09
2023-07-03T01:10:36.059Z,1.11
2023-07-03T01:11:36.069Z,1.09
2023-07-03T01:12:36.086Z,1.08
2023-07-03T01:13:36.147Z,1.09
2023-07-03T01:14:36.208Z,1.06
2023-07-03T01:15:36.191Z,1.09
2023-07-03T01:16:36.284Z,1.11
2023-07-03T01:17:36.258Z,1.09
2023-07-03T01:18:36.220Z,1.08
2023-07-03T01:19:36.281Z,1.09
2023-07-03T01:20:36.234Z,1.10
2023-07-03T01:21:36.300Z,1.08
2023-07-03T01:22:36.300Z,1.09
2023-07-03T01:23:36.298Z,1.11
2023-07-03T01:24:36.311Z,1.07
2023-07-03T01:25:36.338Z,1.10
2023-07-03T01:26:36.325Z,1.12
2023-07-03T01:27:36.382Z,1.11
2023-07-03T01:28:36.341Z,1.11
2023-07-03T01:29:36.317Z,1.10
2023-07-03T01:30:36.368Z,1.08
2023-07-03T01:31:36.451Z,1.12
2023-07-03T01:32:36.404Z,1.10
2023-07-03T01:33:36.382Z,1.11
2023-07-03T01:34:36.380Z,1.12
2023-07-03T01:35:36.387Z,1.11
2023-07-03T01:36:36.396Z,1.09
2023-07-03T01:37:36.410Z,1.10
2023-07-03T01:38:36.412Z,1.11
2023-07-03T01:39:36.426Z,1.10
2023-07-03T01:40:36.426Z,1.12
2023-07-03T01:41:36.471Z,1.12
2023-07-03T01:42:36.484Z,1.11
2023-07-03T01:43:36.484Z,1.09
2023-07-03T01:44:36.490Z,1.11
2023-07-03T01:45:36.558Z,1.10
2023-07-03T01:46:36.689Z,1.12
2023-07-03T01:47:36.626Z,1.13
2023-07-03T01:48:36.574Z,1.08
2023-07-03T01:49:36.628Z,1.11
2023-07-03T01:50:36.660Z,1.12
2023-07-03T01:51:36.664Z,1.10
2023-07-03T01:52:36.827Z,1.13
2023-07-03T01:53:36.774Z,1.09
2023-07-03T01:54:36.796Z,1.11
2023-07-03T01:55:36.752Z,1.12
2023-07-03T01:56:36.839Z,1.12
2023-07-03T01:57:36.850Z,1.12
2023-07-03T01:58:36.861Z,1.11
2023-07-03T01:59:36.858Z,1.12
2023-07-03T02:00:36.926Z,1.11
2023-07-03T02:01:36.961Z,1.12
2023-07-03T02:02:37.069Z,1.11
2023-07-03T02:03:37.072Z,1.11
2023-07-03T02:04:37.059Z,1.10
2023-07-03T02:05:37.066Z,1.14
2023-07-03T02:06:37.070Z,1.11
2023-07-03T02:07:37.128Z,1.13
2023-07-03T02:08:37.128Z,1.13
2023-07-03T02:09:37.084Z,1.14
2023-07-03T02:10:37.255Z,1.13
2023-07-03T02:11:37.149Z,1.10
2023-07-03T02:12:37.158Z,1.11
2023-07-03T02:13:37.169Z,1.12
2023-07-03T02:14:37.162Z,1.12
2023-07-03T02:15:37.170Z,1.13
2023-07-03T02:16:37.201Z,1.13
2023-07-03T02:17:37.230Z,1.10
2023-07-03T02:18:37.198Z,1.09
2023-07-03T02:19:37.187Z,1.11
2023-07-03T02:20:37.212Z,1.12
2023-07-03T02:21:37.180Z,1.11
2023-07-03T02:22:39.371Z,1.13
2023-07-03T02:23:37.176Z,1.16
2023-07-03T02:24:37.205Z,1.15
2023-07-03T02:25:37.135Z,1.12
2023-07-03T02:26:37.147Z,1.14
2023-07-03T02:27:37.160Z,1.13
2023-07-03T02:28:37.208Z,1.11
2023-07-03T02:29:37.194Z,1.13
2023-07-03T02:30:37.153Z,1.12
2023-07-03T02:31:37.141Z,1.13
2023-07-03T02:32:37.826Z,1.13
2023-07-03T02:33:37.095Z,1.14
2023-07-03T02:34:37.098Z,1.13
2023-07-03T02:35:37.053Z,1.13
2023-07-03T02:36:37.113Z,1.13
2023-07-03T02:37:37.111Z,1.12
2023-07-03T02:38:37.085Z,1.15
2023-07-03T02:39:37.054Z,1.14
2023-07-03T02:40:37.107Z,1.15
2023-07-03T02:41:37.049Z,1.14
2023-07-03T02:42:37.056Z,1.14
2023-07-03T02:43:37.022Z,1.14
2023-07-03T02:44:37.070Z,1.12
2023-07-03T02:45:37.046Z,1.12
2023-07-03T02:46:37.091Z,1.12
2023-07-03T02:47:37.180Z,1.09
2023-07-03T02:48:36.987Z,1.13
2023-07-03T02:49:37.028Z,1.13
2023-07-03T02:50:37.014Z,1.13
2023-07-03T02:51:36.966Z,1.11
2023-07-03T02:52:37.021Z,1.14
2023-07-03T02:53:36.976Z,1.12
2023-07-03T02:54:36.947Z,1.12
2023-07-03T02:55:36.921Z,1.12
2023-07-03T02:56:36.936Z,1.14
2023-07-03T02:57:36.918Z,1.14
2023-07-03T02:58:36.904Z,1.13
2023-07-03T02:59:36.896Z,1.12
2023-07-03T03:00:36.951Z,1.16
2023-07-03T03:01:36.907Z,1.12
2023-07-03T03:02:36.990Z,1.14
2023-07-03T03:03:36.973Z,1.13
2023-07-03T03:04:36.983Z,1.15
2023-07-03T03:05:36.899Z,1.14
2023-07-03T03:06:36.972Z,1.14
2023-07-03T03:07:36.851Z,1.14
2023-07-03T03:08:36.863Z,1.12
2023-07-03T03:09:36.840Z,1.12
2023-07-03T03:10:36.856Z,1.14
2023-07-03T03:11:36.790Z,1.14
2023-07-03T03:12:36.788Z,1.11
2023-07-03T03:13:36.852Z,1.12
2023-07-03T03:14:36.816Z,1.11
2023-07-03T03:15:36.812Z,1.14
2023-07-03T03:16:36.856Z,1.13
2023-07-03T03:17:37.360Z,1.13
2023-07-03T03:18:36.779Z,1.14
2023-07-03T03:19:36.774Z,1.14
2023-07-03T03:20:36.754Z,1.14
2023-07-03T03:21:36.757Z,1.15
2023-07-03T03:22:36.797Z,1.16
2023-07-03T03:23:36.736Z,1.13
2023-07-03T03:24:36.740Z,1.14
2023-07-03T03:25:36.729Z,1.13
2023-07-03T03:26:36.725Z,1.14
2023-07-03T03:27:36.695Z,1.14
2023-07-03T03:28:36.714Z,1.13
2023-07-03T03:29:36.725Z,1.14
2023-07-03T03:30:36.719Z,1.12
2023-07-03T03:31:36.721Z,1.12
2023-07-03T03:32:36.707Z,1.14
2023-07-03T03:33:36.662Z,1.14
2023-07-03T03:34:36.661Z,1.15
2023-07-03T03:35:36.690Z,1.14
2023-07-03T03:36:36.671Z,1.14
2023-07-03T03:37:36.659Z,1.15
2023-07-03T03:38:36.612Z,1.12
2023-07-03T03:39:36.617Z,1.14
2023-07-03T03:40:36.734Z,1.17
2023-07-03T03:41:36.647Z,1.16
2023-07-03T03:42:36.632Z,1.14
2023-07-03T03:43:36.588Z,1.16
2023-07-03T03:44:36.609Z,1.15
2023-07-03T03:45:36.594Z,1.15
2023-07-03T03:46:36.652Z,1.14
2023-07-03T03:47:36.632Z,1.16
2023-07-03T03:48:36.799Z,1.15
2023-07-03T03:49:36.569Z,1.14
2023-07-03T03:50:36.520Z,1.15
2023-07-03T03:51:36.545Z,1.14
2023-07-03T03:52:36.530Z,1.15
2023-07-03T03:53:36.536Z,1.16
2023-07-03T03:54:36.509Z,1.15
2023-07-03T03:55:36.511Z,1.15
2023-07-03T03:56:36.492Z,1.14
2023-07-03T03:57:36.541Z,1.15
2023-07-03T03:58:36.529Z,1.16
2023-07-03T03:59:36.497Z,1.15
2023-07-03T04:00:36.480Z,1.15
2023-07-03T04:01:36.525Z,1.13
2023-07-03T04:02:36.548Z,1.15
2023-07-03T04:03:36.471Z,1.08
2023-07-03T04:04:36.574Z,1.07
2023-07-03T04:05:36.429Z,1.03
2023-07-03T04:06:36.429Z,1.00
2023-07-03T04:07:36.414Z,0.94
2023-07-03T04:08:36.406Z,0.92
2023-07-03T04:09:36.418Z,0.90
2023-07-03T04:10:36.427Z,0.85
2023-07-03T04:11:36.410Z,0.82
2023-07-03T04:12:36.437Z,0.80
2023-07-03T04:13:36.414Z,0.77
2023-07-03T04:14:36.387Z,0.74
2023-07-03T04:15:36.376Z,0.71
2023-07-03T04:16:36.398Z,0.70
2023-07-03T04:17:36.371Z,0.67
2023-07-03T04:18:36.342Z,0.65
2023-07-03T04:19:36.362Z,0.63
2023-07-03T04:20:36.328Z,0.61
2023-07-03T04:21:36.364Z,0.60
2023-07-03T04:22:36.326Z,0.58
2023-07-03T04:23:36.314Z,0.57
2023-07-03T04:24:36.313Z,0.56
2023-07-03T04:25:36.319Z,0.55
2023-07-03T04:26:36.277Z,0.53
2023-07-03T04:27:36.292Z,0.52
2023-07-03T04:28:36.328Z,0.51
2023-07-03T04:29:36.264Z,0.50
2023-07-03T04:30:36.247Z,0.50
2023-07-03T04:31:36.266Z,0.50
2023-07-03T04:32:38.266Z,0.50
2023-07-03T04:33:36.273Z,0.50
2023-07-03T04:34:36.321Z,0.51
2023-07-03T04:35:36.330Z,0.50
2023-07-03T04:36:36.410Z,0.50
2023-07-03T04:37:36.435Z,0.50
2023-07-03T04:38:36.432Z,0.50
2023-07-03T04:39:36.442Z,0.51
2023-07-03T04:40:36.499Z,0.51
2023-07-03T04:41:36.545Z,0.51
2023-07-03T04:42:36.574Z,0.51
2023-07-03T04:43:36.644Z,0.51
2023-07-03T04:44:36.686Z,0.51
2023-07-03T04:45:36.713Z,0.51
2023-07-03T04:46:36.750Z,0.51
2023-07-03T04:47:36.791Z,0.51
2023-07-03T04:48:36.799Z,0.51
2023-07-03T04:49:36.845Z,0.51
2023-07-03T04:50:36.887Z,0.51
2023-07-03T04:51:36.882Z,0.51
2023-07-03T04:52:36.883Z,0.51
2023-07-03T04:53:36.958Z,0.51
2023-07-03T04:54:36.927Z,0.51
2023-07-03T04:55:36.980Z,0.51
2023-07-03T04:56:36.997Z,0.51
2023-07-03T04:57:37.074Z,0.51
2023-07-03T04:58:37.061Z,0.52
2023-07-03T04:59:37.113Z,0.52
2023-07-03T05:00:37.165Z,0.52
2023-07-03T05:01:37.187Z,0.52
2023-07-03T05:02:37.265Z,0.52
2023-07-03T05:03:37.241Z,0.53
2023-07-03T05:04:37.355Z,0.52
2023-07-03T05:05:37.301Z,0.53
2023-07-03T05:06:37.321Z,0.53
2023-07-03T05:07:37.328Z,0.52
2023-07-03T05:08:37.378Z,0.53
2023-07-03T05:09:37.418Z,0.52
2023-07-03T05:10:37.444Z,0.52
2023-07-03T05:11:37.501Z,0.52
2023-07-03T05:12:37.605Z,0.52
2023-07-03T05:13:37.548Z,0.52
2023-07-03T05:14:37.555Z,0.52
2023-07-03T05:15:37.732Z,0.52
2023-07-03T05:16:37.629Z,0.52
2023-07-03T05:17:37.708Z,0.53
2023-07-03T05:18:37.731Z,0.52
2023-07-03T05:19:37.714Z,0.53
2023-07-03T05:20:37.794Z,0.52
2023-07-03T05:21:37.800Z,0.53
2023-07-03T05:22:37.836Z,0.52
2023-07-03T05:23:37.979Z,0.53
2023-07-03T05:24:37.925Z,0.53
2023-07-03T05:25:38.010Z,0.53
2023-07-03T05:26:38.019Z,0.53
2023-07-03T05:27:38.018Z,0.53
2023-07-03T05:28:38.036Z,0.53
2023-07-03T05:29:38.106Z,0.53
2023-07-03T05:30:38.172Z,0.53
2023-07-03T05:31:38.257Z,0.53
2023-07-03T05:32:38.262Z,0.52
2023-07-03T05:33:38.520Z,0.52
2023-07-03T05:34:38.929Z,0.51
2023-07-03T05:35:48.466Z,0.50
2023-07-03T05:36:39.423Z,0.50
2023-07-03T05:37:38.493Z,0.50
2023-07-03T05:38:39.050Z,0.50
2023-07-03T05:39:38.398Z,0.50
2023-07-03T05:40:39.214Z,0.50
2023-07-03T05:41:38.310Z,0.50
2023-07-03T05:42:38.321Z,0.51
2023-07-03T05:43:38.303Z,0.51
2023-07-03T05:44:38.308Z,0.50
2023-07-03T05:45:38.277Z,0.51
2023-07-03T05:46:38.276Z,0.51
2023-07-03T05:47:38.318Z,0.50
2023-07-03T05:48:38.231Z,0.52
2023-07-03T05:49:38.277Z,0.53
2023-07-03T05:50:38.274Z,0.54
2023-07-03T05:51:38.240Z,0.54
2023-07-03T05:52:38.283Z,0.54
2023-07-03T05:53:38.411Z,0.54
2023-07-03T05:54:38.361Z,0.54
2023-07-03T05:55:38.304Z,0.54
2023-07-03T05:56:38.284Z,0.54
2023-07-03T05:57:38.322Z,0.55
2023-07-03T05:58:38.412Z,0.56
2023-07-03T05:59:38.407Z,0.57
2023-07-03T06:00:39.042Z,0.58
2023-07-03T06:01:38.673Z,0.60
2023-07-03T06:02:38.676Z,0.61
2023-07-03T06:03:38.670Z,0.62
2023-07-03T06:04:38.707Z,0.63
2023-07-03T06:05:38.762Z,0.65
2023-07-03T06:06:38.791Z,0.66
2023-07-03T06:07:38.794Z,0.67
2023-07-03T06:08:38.835Z,0.69
2023-07-03T06:09:38.897Z,0.69
2023-07-03T06:10:38.956Z,0.71
2023-07-03T06:11:39.014Z,0.73
2023-07-03T06:12:39.041Z,0.73
2023-07-03T06:13:39.099Z,0.75
2023-07-03T06:14:39.090Z,0.76
2023-07-03T06:15:39.153Z,0.76
2023-07-03T06:16:39.180Z,0.77
2023-07-03T06:17:39.207Z,0.79
2023-07-03T06:18:39.272Z,0.79
2023-07-03T06:19:39.289Z,0.81
2023-07-03T06:20:39.308Z,0.82
2023-07-03T06:21:39.323Z,0.84
2023-07-03T06:22:39.333Z,0.84
2023-07-03T06:23:39.392Z,0.85
2023-07-03T06:24:39.490Z,0.87
2023-07-03T06:25:39.432Z,0.88
2023-07-03T06:26:39.521Z,0.89
2023-07-03T06:27:39.516Z,0.91
2023-07-03T06:28:39.562Z,0.92
2023-07-03T06:29:39.613Z,0.93
2023-07-03T06:30:39.627Z,0.92
2023-07-03T06:31:39.715Z,0.93
2023-07-03T06:32:39.702Z,0.94
2023-07-03T06:33:39.741Z,0.95
2023-07-03T06:34:39.709Z,0.94
2023-07-03T06:35:39.734Z,0.96
2023-07-03T06:36:40.096Z,0.97
2023-07-03T06:37:39.789Z,0.97
2023-07-03T06:38:40.036Z,0.99
2023-07-03T06:39:39.973Z,0.98
2023-07-03T06:40:39.844Z,1.00
2023-07-03T06:41:39.858Z,0.99
2023-07-03T06:42:40.268Z,1.01
2023-07-03T06:43:39.902Z,1.03
2023-07-03T06:44:39.953Z,1.00
2023-07-03T06:45:39.907Z,1.02
2023-07-03T06:46:40.016Z,1.02
2023-07-03T06:47:40.109Z,1.02
2023-07-03T06:48:40.003Z,1.02
2023-07-03T06:49:40.085Z,1.02
2023-07-03T06:50:40.044Z,1.02
2023-07-03T06:51:40.096Z,0.94
2023-07-03T06:52:40.101Z,0.85
2023-07-03T06:53:40.175Z,0.81
2023-07-03T06:54:40.176Z,0.84
2023-07-03T06:55:40.304Z,0.84
2023-07-03T06:56:40.597Z,0.83
2023-07-03T06:57:40.345Z,0.83
2023-07-03T06:58:40.360Z,0.84
2023-07-03T06:59:43.023Z,0.84
2023-07-03T07:00:40.383Z,0.84
2023-07-03T07:01:40.408Z,0.87
2023-07-03T07:02:40.373Z,0.88
2023-07-03T07:03:40.441Z,0.89
2023-07-03T07:04:40.377Z,0.90
2023-07-03T07:05:40.516Z,0.88
2023-07-03T07:06:40.588Z,0.88
2023-07-03T07:07:40.378Z,0.88
2023-07-03T07:08:40.308Z,0.87
2023-07-03T07:09:40.335Z,0.87
2023-07-03T07:10:40.328Z,0.88
2023-07-03T07:11:40.696Z,0.87
2023-07-03T07:12:40.309Z,0.88
2023-07-03T07:13:40.317Z,0.87
2023-07-03T07:14:40.268Z,0.87
2023-07-03T07:15:40.276Z,0.88
2023-07-03T07:16:40.245Z,0.88
2023-07-03T07:17:51.056Z,0.87
2023-07-03T07:18:41.311Z,0.87
2023-07-03T07:19:40.216Z,0.87
2023-07-03T07:20:40.256Z,0.87
2023-07-03T07:21:40.243Z,0.87
2023-07-03T07:22:40.228Z,0.86
2023-07-03T07:23:40.179Z,0.88
2023-07-03T07:24:40.188Z,0.87
2023-07-03T07:25:40.188Z,0.86
2023-07-03T07:26:40.154Z,0.86
2023-07-03T07:27:40.366Z,0.83
2023-07-03T07:28:40.161Z,0.83
2023-07-03T07:29:40.180Z,0.85
2023-07-03T07:30:40.236Z,0.84
2023-07-03T07:31:42.264Z,0.82
2023-07-03T07:32:40.222Z,0.81
2023-07-03T07:33:40.203Z,0.78
2023-07-03T07:34:40.191Z,0.77
2023-07-03T07:35:40.199Z,0.74
2023-07-03T07:36:40.206Z,0.74
2023-07-03T07:37:40.247Z,0.74
2023-07-03T07:38:40.756Z,0.68
2023-07-03T07:39:40.204Z,0.65
2023-07-03T07:40:40.219Z,0.59
2023-07-03T07:41:40.228Z,0.57
2023-07-03T07:42:40.414Z,0.52
2023-07-03T07:43:40.310Z,0.50
2023-07-03T07:44:40.247Z,0.50
2023-07-03T07:45:40.222Z,0.50
2023-07-03T07:46:40.285Z,0.50
2023-07-03T07:47:40.304Z,0.50
2023-07-03T07:48:40.282Z,0.53
2023-07-03T07:49:40.287Z,0.54
2023-07-03T07:50:40.317Z,0.50
2023-07-03T07:51:40.330Z,0.51
2023-07-03T07:52:40.630Z,0.52
2023-07-03T07:53:40.378Z,0.51
2023-07-03T07:54:40.696Z,0.50
2023-07-03T07:55:40.761Z,0.50
2023-07-03T07:56:40.434Z,0.52
2023-07-03T07:57:40.522Z,0.51
2023-07-03T07:58:40.542Z,0.52
2023-07-03T07:59:40.628Z,0.51
2023-07-03T08:00:40.533Z,0.51
2023-07-03T08:01:40.785Z,0.50
2023-07-03T08:02:40.814Z,0.51
2023-07-03T08:03:40.619Z,0.51
2023-07-03T08:04:40.832Z,0.50
2023-07-03T08:05:40.601Z,0.52
2023-07-03T08:06:40.705Z,0.51
2023-07-03T08:07:40.680Z,0.51
2023-07-03T08:08:40.785Z,0.51
2023-07-03T08:09:40.716Z,0.50
2023-07-03T08:10:41.036Z,0.51
2023-07-03T08:11:41.012Z,0.51
2023-07-03T08:12:43.144Z,0.53
2023-07-03T08:13:40.975Z,0.53
2023-07-03T08:14:41.003Z,0.50
2023-07-03T08:15:41.137Z,0.51
2023-07-03T08:16:41.270Z,0.51
2023-07-03T08:17:41.240Z,0.53
2023-07-03T08:18:41.609Z,0.53
2023-07-03T08:19:41.556Z,0.53
2023-07-03T08:20:41.384Z,0.57
2023-07-03T08:21:41.735Z,0.57
2023-07-03T08:22:41.546Z,0.55
2023-07-03T08:23:41.534Z,0.57
2023-07-03T08:24:41.604Z,0.57
2023-07-03T08:25:41.790Z,0.59
2023-07-03T08:26:41.712Z,0.59
2023-07-03T08:27:41.903Z,0.60
2023-07-03T08:28:42.954Z,0.57
2023-07-03T08:29:41.994Z,0.57
2023-07-03T08:30:41.850Z,0.57
2023-07-03T08:31:42.380Z,0.59
2023-07-03T08:32:42.111Z,0.61
2023-07-03T08:33:42.136Z,0.59
2023-07-03T08:37:42.005Z,0.51
2023-07-03T08:38:42.130Z,0.48
2023-07-03T08:39:41.954Z,0.48
2023-07-03T08:40:41.981Z,0.44
2023-07-03T08:41:41.964Z,0.43
2023-07-03T08:42:41.971Z,0.51
2023-07-03T08:43:41.988Z,0.52
2023-07-03T08:44:41.912Z,0.50
2023-07-03T08:45:41.967Z,0.53
2023-07-03T08:46:42.192Z,0.51
2023-07-03T08:47:42.019Z,0.53
2023-07-03T08:48:42.015Z,0.49
2023-07-03T08:49:41.865Z,0.49
2023-07-03T08:50:41.930Z,0.51
2023-07-03T08:51:41.947Z,0.50
2023-07-03T08:52:41.892Z,0.51
2023-07-03T08:53:41.893Z,0.50
2023-07-03T08:54:42.018Z,0.51
2023-07-03T08:55:41.875Z,0.51
2023-07-03T08:56:41.874Z,0.50
2023-07-03T08:57:41.893Z,0.50
2023-07-03T08:58:41.855Z,0.51
2023-07-03T08:59:41.847Z,0.50
2023-07-03T09:00:41.838Z,0.51
2023-07-03T09:01:41.927Z,0.54
2023-07-03T09:02:41.982Z,0.56
2023-07-03T09:03:42.094Z,0.56
2023-07-03T09:04:42.130Z,0.58
2023-07-03T09:05:41.807Z,0.57
2023-07-03T09:06:41.805Z,0.57
2023-07-03T09:07:41.839Z,0.50
2023-07-03T09:08:41.808Z,0.52
2023-07-03T09:09:41.856Z,0.49
2023-07-03T09:10:41.756Z,0.50
2023-07-03T09:11:43.114Z,0.50
2023-07-03T09:12:42.592Z,0.52
2023-07-03T09:13:42.494Z,0.51
2023-07-03T09:14:42.064Z,0.50
2023-07-03T09:15:42.114Z,0.49
2023-07-03T09:16:42.137Z,0.51
2023-07-03T09:17:42.222Z,0.49
2023-07-03T09:18:42.305Z,0.51
2023-07-03T09:19:42.368Z,0.53
2023-07-03T09:20:42.262Z,0.57
2023-07-03T09:21:42.300Z,0.52
2023-07-03T09:22:42.466Z,0.53
2023-07-03T09:23:42.487Z,0.52
2023-07-03T09:24:42.370Z,0.52
2023-07-03T09:25:42.416Z,0.55
2023-07-03T09:26:42.469Z,0.60
2023-07-03T09:27:42.697Z,0.64
2023-07-03T09:28:42.655Z,0.66
2023-07-03T09:29:42.673Z,0.62
2023-07-03T09:30:42.691Z,0.63
2023-07-03T09:31:42.800Z,0.61
2023-07-03T09:32:42.711Z,0.50
2023-07-03T09:33:42.745Z,0.51
2023-07-03T09:34:42.793Z,0.48
2023-07-03T09:36:43.118Z,0.52
2023-07-03T09:37:42.882Z,0.53
2023-07-03T09:38:42.923Z,0.49
2023-07-03T09:39:42.961Z,0.51
2023-07-03T09:40:42.989Z,0.50
2023-07-03T09:41:43.010Z,0.49
2023-07-03T09:42:43.020Z,0.49
2023-07-03T09:43:43.081Z,0.50
2023-07-03T09:44:43.148Z,0.51
2023-07-03T09:45:44.568Z,0.52
2023-07-03T09:46:43.272Z,0.60
2023-07-03T09:47:43.536Z,0.57
2023-07-03T09:48:43.214Z,0.60
2023-07-03T09:49:43.368Z,0.66
2023-07-03T09:50:50.868Z,0.71
2023-07-03T09:51:44.453Z,0.71
2023-07-03T09:52:47.238Z,0.70
2023-07-03T09:53:44.247Z,0.65
2023-07-03T09:54:43.194Z,0.59
2023-07-03T09:55:43.241Z,0.53
2023-07-03T09:56:43.211Z,0.51
2023-07-03T09:57:43.231Z,0.48
2023-07-03T09:58:43.332Z,0.50
2023-07-03T09:59:43.160Z,0.52
2023-07-03T10:00:44.073Z,0.50
2023-07-03T10:03:43.240Z,0.50
2023-07-03T10:06:43.228Z,0.46
2023-07-03T10:07:43.475Z,0.44
2023-07-03T10:08:44.009Z,0.46
2023-07-03T10:11:43.285Z,0.43
2023-07-03T10:12:43.139Z,0.45
2023-07-03T10:13:44.063Z,0.44
2023-07-03T10:14:43.780Z,0.41
2023-07-03T10:15:43.068Z,0.39
2023-07-03T10:16:43.112Z,0.45
2023-07-03T10:17:43.245Z,0.50
2023-07-03T10:18:43.048Z,0.51
2023-07-03T10:19:43.048Z,0.52
2023-07-03T10:20:43.075Z,0.55
2023-07-03T10:21:43.684Z,0.54
2023-07-03T10:22:43.174Z,0.62
2023-07-03T10:23:43.386Z,0.64
2023-07-03T10:24:43.031Z,0.66
2023-07-03T10:25:43.013Z,0.66
2023-07-03T10:26:42.993Z,0.71
2023-07-03T10:27:42.991Z,0.70
2023-07-03T10:28:42.983Z,0.70
2023-07-03T10:29:43.014Z,0.74
2023-07-03T10:30:42.925Z,0.74
2023-07-03T10:31:46.083Z,0.76
2023-07-03T10:32:42.948Z,0.77
2023-07-03T10:33:42.936Z,0.80
2023-07-03T10:34:42.958Z,0.79
2023-07-03T10:35:42.933Z,0.78
2023-07-03T10:36:42.979Z,0.78
2023-07-03T10:37:42.918Z,0.74
2023-07-03T10:38:42.919Z,0.74
2023-07-03T10:39:43.047Z,0.76
2023-07-03T10:40:42.879Z,0.74
2023-07-03T10:41:42.910Z,0.74
2023-07-03T10:42:42.918Z,0.72
2023-07-03T10:43:42.876Z,0.73
2023-07-03T10:44:42.870Z,0.72
2023-07-03T10:45:42.906Z,0.71
2023-07-03T10:46:43.586Z,0.72
2023-07-03T10:47:42.868Z,0.72
2023-07-03T10:48:42.801Z,0.71
2023-07-03T10:49:42.840Z,0.71
2023-07-03T10:50:42.795Z,0.70
2023-07-03T10:51:42.807Z,0.69
2023-07-03T10:52:42.812Z,0.68
2023-07-03T10:53:42.776Z,0.69
2023-07-03T10:54:42.799Z,0.68
2023-07-03T10:55:42.821Z,0.65
2023-07-03T10:56:42.746Z,0.66
2023-07-03T10:57:42.737Z,0.67
2023-07-03T10:58:42.776Z,0.67
2023-07-03T10:59:42.765Z,0.73
2023-07-03T11:00:42.764Z,0.81
2023-07-03T11:01:42.758Z,0.86
2023-07-03T11:02:42.817Z,0.89
2023-07-03T11:03:43.835Z,0.93
2023-07-03T11:04:42.791Z,0.99
2023-07-03T11:05:42.697Z,1.06
2023-07-03T11:06:42.708Z,1.23
2023-07-03T11:07:42.702Z,1.38
2023-07-03T11:08:42.682Z,1.67
2023-07-03T11:09:42.697Z,1.78
2023-07-03T11:10:42.657Z,1.95
2023-07-03T11:11:42.840Z,2.12
2023-07-03T11:12:42.637Z,2.21
2023-07-03T11:13:42.719Z,2.31
2023-07-03T11:14:42.678Z,2.56
2023-07-03T11:15:42.656Z,2.72
2023-07-03T11:16:42.736Z,2.94
2023-07-03T11:22:42.640Z,3.17
2023-07-03T11:23:42.614Z,3.29
2023-07-03T11:24:42.552Z,3.59
2023-07-03T11:28:42.573Z,3.19
2023-07-03T11:29:42.538Z,3.42
2023-07-03T11:30:42.524Z,3.89
2023-07-03T11:31:42.566Z,4.63
2023-07-03T11:32:42.503Z,6.01
2023-07-03T11:36:50.399Z,6.17
2023-07-03T11:40:42.525Z,6.38
2023-07-03T11:43:42.431Z,6.21
2023-07-03T11:44:42.410Z,6.46
2023-07-03T11:45:42.419Z,6.92
2023-07-03T11:46:42.460Z,7.80
2023-07-03T11:47:42.448Z,9.09
2023-07-03T11:48:42.439Z,9.44
2023-07-03T11:49:42.395Z,9.73
2023-07-03T11:50:42.385Z,9.90
2023-07-03T11:51:42.396Z,10.14
2023-07-03T11:52:42.595Z,9.85
2023-07-03T11:53:42.375Z,9.76
2023-07-03T11:54:42.353Z,9.80
2023-07-03T11:55:42.365Z,9.86
2023-07-03T11:56:42.359Z,9.61
2023-07-03T11:57:42.327Z,9.55
2023-07-03T11:58:42.358Z,9.81
2023-07-03T11:59:42.324Z,9.97
2023-07-03T12:00:42.673Z,10.09
2023-07-03T12:01:42.294Z,9.93
2023-07-03T12:02:42.390Z,10.13
2023-07-03T12:03:42.306Z,10.10
2023-07-03T12:04:44.751Z,10.35
2023-07-03T12:05:42.390Z,10.37
2023-07-03T12:06:42.381Z,10.42
2023-07-03T12:07:42.329Z,10.63
2023-07-03T12:08:42.277Z,10.84
2023-07-03T12:09:42.258Z,11.81
2023-07-03T12:10:42.319Z,11.95
2023-07-03T12:11:42.228Z,11.27
2023-07-03T12:12:42.222Z,11.85
2023-07-03T12:13:42.270Z,12.48
2023-07-03T12:14:42.254Z,12.44
2023-07-03T12:15:42.217Z,12.70
2023-07-03T12:16:42.244Z,12.60
2023-07-03T12:17:42.224Z,12.76
2023-07-03T12:18:42.213Z,12.81
2023-07-03T12:19:42.195Z,13.01
2023-07-03T12:20:42.210Z,12.96
2023-07-03T12:21:42.181Z,13.66
2023-07-03T12:22:42.196Z,13.95
2023-07-03T12:23:42.182Z,13.99
2023-07-03T12:24:42.184Z,14.71
2023-07-03T12:25:42.159Z,13.93
2023-07-03T12:26:42.196Z,14.22
2023-07-03T12:27:42.140Z,14.78
2023-07-03T12:28:42.133Z,15.00
2023-07-03T12:29:42.153Z,14.86
2023-07-03T12:30:42.133Z,14.94
2023-07-03T12:31:42.255Z,14.96
2023-07-03T12:32:42.128Z,14.57
2023-07-03T12:33:42.159Z,15.31
2023-07-03T12:34:42.190Z,14.99
2023-07-03T12:35:42.245Z,15.59
2023-07-03T12:36:47.385Z,15.45
2023-07-03T12:37:43.276Z,15.46
2023-07-03T12:38:42.230Z,15.50
2023-07-03T12:39:42.268Z,15.54
2023-07-03T12:40:42.278Z,16.10
2023-07-03T12:41:42.407Z,15.89
2023-07-03T12:42:42.251Z,16.32
2023-07-03T12:43:42.230Z,15.84
2023-07-03T12:44:42.268Z,16.16
2023-07-03T12:45:42.169Z,15.86
2023-07-03T12:46:42.289Z,16.31
2023-07-03T12:47:42.264Z,16.67
2023-07-03T12:48:42.173Z,16.49
2023-07-03T12:49:42.185Z,16.48
2023-07-03T12:50:42.183Z,16.26
2023-07-03T12:51:42.268Z,16.15
2023-07-03T12:52:42.185Z,16.19
2023-07-03T12:53:42.163Z,16.16
2023-07-03T12:54:42.219Z,16.38
2023-07-03T12:55:42.229Z,16.17
2023-07-03T12:56:42.250Z,16.32
2023-07-03T12:57:42.251Z,16.12
2023-07-03T12:58:42.255Z,16.61
2023-07-03T12:59:42.321Z,16.14
2023-07-03T13:00:42.365Z,16.26
2023-07-03T13:01:42.284Z,16.53
2023-07-03T13:02:42.399Z,16.46
2023-07-03T13:03:42.298Z,16.80
2023-07-03T13:04:42.366Z,16.65
2023-07-03T13:05:42.431Z,16.91
2023-07-03T13:06:42.293Z,16.73
2023-07-03T13:07:42.327Z,16.71
2023-07-03T13:08:42.291Z,16.61
2023-07-03T13:09:42.409Z,16.46
2023-07-03T13:10:42.296Z,16.40
2023-07-03T13:11:42.330Z,16.56
2023-07-03T13:12:42.374Z,16.88
2023-07-03T13:13:42.371Z,16.70
2023-07-03T13:14:42.269Z,16.68
2023-07-03T13:15:43.215Z,16.69
2023-07-03T13:16:42.287Z,16.85
2023-07-03T13:17:42.312Z,16.85
2023-07-03T13:18:42.311Z,16.96
2023-07-03T13:19:42.283Z,17.02
2023-07-03T13:20:42.273Z,16.46
2023-07-03T13:21:42.285Z,16.94
2023-07-03T13:22:42.298Z,16.59
2023-07-03T13:23:44.673Z,16.73
2023-07-03T13:24:42.329Z,16.97
2023-07-03T13:25:42.375Z,17.31
2023-07-03T13:26:42.427Z,17.17
2023-07-03T13:27:42.435Z,17.12
2023-07-03T13:28:42.542Z,16.98
2023-07-03T13:29:42.573Z,16.91
2023-07-03T13:30:42.721Z,16.36
2023-07-03T13:31:51.992Z,16.58
2023-07-03T13:32:43.706Z,16.60
2023-07-03T13:33:43.612Z,16.66
2023-07-03T13:34:42.640Z,16.75
2023-07-03T13:35:42.627Z,16.84
2023-07-03T13:36:42.669Z,17.22
2023-07-03T13:37:42.623Z,17.24
2023-07-03T13:38:42.663Z,17.20
2023-07-03T13:39:46.493Z,16.79
2023-07-03T13:40:43.662Z,16.80
2023-07-03T13:41:42.694Z,16.81